createdAt,value
2017-10-11T00:00:42.991Z,0
2017-10-11T00:02:04.899Z,0
2017-10-11T00:03:27.425Z,0
2017-10-11T00:04:49.747Z,0
2017-10-11T00:06:11.669Z,0
2017-10-11T00:07:33.302Z,0
2017-10-11T00:08:55.494Z,0
2017-10-11T00:10:17.016Z,0
2017-10-11T00:11:38.916Z,0
2017-10-11T00:13:01.099Z,0
2017-10-11T00:14:23.310Z,0
2017-10-11T00:15:45.498Z,0
2017-10-11T00:17:08.040Z,0
2017-10-11T00:18:30.660Z,0
2017-10-11T00:19:53.181Z,0
2017-10-11T00:21:14.696Z,0
2017-10-11T00:22:36.546Z,0
2017-10-11T00:23:58.696Z,0
2017-10-11T00:25:20.882Z,0
2017-10-11T00:26:42.736Z,0
2017-10-11T00:28:04.613Z,0
2017-10-11T00:29:26.812Z,0
2017-10-11T00:30:49.339Z,0
2017-10-11T00:32:11.246Z,0
2017-10-11T00:33:33.102Z,0
2017-10-11T00:34:55.027Z,0
2017-10-11T00:36:17.215Z,0
2017-10-11T00:37:39.416Z,0
2017-10-11T00:39:01.620Z,0
2017-10-11T00:40:23.463Z,0
2017-10-11T00:41:44.975Z,0
2017-10-11T00:43:06.525Z,0
2017-10-11T00:44:28.117Z,0
2017-10-11T00:45:50.739Z,0
2017-10-11T00:47:12.601Z,0
2017-10-11T00:48:34.486Z,0
2017-10-11T00:49:56.325Z,0
2017-10-11T00:51:18.147Z,0
2017-10-11T00:52:40.655Z,0
2017-10-11T00:54:02.516Z,0
2017-10-11T00:55:24.701Z,0
2017-10-11T00:56:47.109Z,0
2017-10-11T00:58:09.308Z,0
2017-10-11T00:59:31.591Z,0
2017-10-11T01:00:53.438Z,0
2017-10-11T01:02:15.271Z,0
2017-10-11T01:03:36.804Z,0
2017-10-11T01:04:59.023Z,0
2017-10-11T01:06:21.225Z,0
2017-10-11T01:07:43.710Z,0
2017-10-11T01:09:05.568Z,0
2017-10-11T01:10:27.762Z,0
2017-10-11T01:11:50.304Z,0
2017-10-11T01:13:12.447Z,0
2017-10-11T01:14:35.058Z,0
2017-10-11T01:15:57.560Z,0
2017-10-11T01:17:19.875Z,0
2017-10-11T01:18:42.378Z,0
2017-10-11T01:20:04.883Z,0
2017-10-11T01:21:26.757Z,0
2017-10-11T01:22:48.615Z,0
2017-10-11T01:24:10.461Z,0
2017-10-11T01:25:32.308Z,0
2017-10-11T01:26:54.484Z,0
2017-10-11T01:28:16.443Z,0
2017-10-11T01:29:38.968Z,0
2017-10-11T01:31:01.536Z,0
2017-10-11T01:32:23.077Z,0
2017-10-11T01:33:44.639Z,0
2017-10-11T01:35:07.114Z,0
2017-10-11T01:36:29.029Z,0
2017-10-11T01:37:50.897Z,0
2017-10-11T01:39:13.073Z,0
2017-10-11T01:40:35.376Z,0
2017-10-11T01:41:57.891Z,0
2017-10-11T01:43:19.547Z,0
2017-10-11T01:44:41.396Z,0
2017-10-11T01:46:03.873Z,0
2017-10-11T01:47:26.176Z,0
2017-10-11T01:48:48.356Z,0
2017-10-11T01:50:10.186Z,0
2017-10-11T01:51:32.871Z,0
2017-10-11T01:52:54.802Z,0
2017-10-11T01:54:16.311Z,0
2017-10-11T01:55:38.835Z,0
2017-10-11T01:57:01.006Z,0
2017-10-11T01:58:23.226Z,0
2017-10-11T01:59:45.415Z,0
2017-10-11T02:01:07.606Z,0
2017-10-11T02:02:29.800Z,0
2017-10-11T02:03:52.325Z,0
2017-10-11T02:05:14.845Z,0
2017-10-11T02:06:36.713Z,0
2017-10-11T02:07:58.532Z,0
2017-10-11T02:09:20.817Z,0
2017-10-11T02:10:43.502Z,0
2017-10-11T02:12:06.029Z,0
2017-10-11T02:13:28.235Z,0
2017-10-11T02:14:50.083Z,0
2017-10-11T02:16:12.272Z,0
2017-10-11T02:17:34.497Z,0
2017-10-11T02:18:56.637Z,0
2017-10-11T02:20:19.156Z,0
2017-10-11T02:21:41.345Z,0
2017-10-11T02:23:02.879Z,0
2017-10-11T02:24:25.853Z,0
2017-10-11T02:25:47.707Z,0
2017-10-11T02:27:09.887Z,0
2017-10-11T02:28:31.826Z,0
2017-10-11T02:29:54.360Z,0
2017-10-11T02:31:16.553Z,0
2017-10-11T02:32:38.737Z,0
2017-10-11T02:34:00.586Z,0
2017-10-11T02:35:22.824Z,0
2017-10-11T02:36:45.014Z,0
2017-10-11T02:38:07.199Z,0
2017-10-11T02:39:28.376Z,0
2017-10-11T02:40:50.875Z,0
2017-10-11T02:42:12.062Z,0
2017-10-11T02:43:34.249Z,0
2017-10-11T02:44:56.168Z,0
2017-10-11T02:46:18.701Z,0
2017-10-11T02:47:40.905Z,0
2017-10-11T02:49:02.784Z,0
2017-10-11T02:50:24.968Z,0
2017-10-11T02:51:47.204Z,0
2017-10-11T02:53:08.780Z,0
2017-10-11T02:54:30.956Z,0
2017-10-11T02:55:53.144Z,0
2017-10-11T02:57:14.735Z,0
2017-10-11T02:58:36.922Z,0
2017-10-11T02:59:58.836Z,0
2017-10-11T03:01:20.489Z,0
2017-10-11T03:02:42.515Z,0
2017-10-11T03:04:04.364Z,0
2017-10-11T03:05:26.250Z,0
2017-10-11T03:06:47.769Z,0
2017-10-11T03:08:10.651Z,0
2017-10-11T03:09:32.831Z,0
2017-10-11T03:10:55.067Z,0
2017-10-11T03:12:16.585Z,0
2017-10-11T03:13:38.445Z,0
2017-10-11T03:15:00.285Z,0
2017-10-11T03:16:22.533Z,0
2017-10-11T03:17:44.822Z,0
2017-10-11T03:19:06.684Z,0
2017-10-11T03:20:28.872Z,0
2017-10-11T03:21:50.828Z,0
2017-10-11T03:23:13.376Z,0
2017-10-11T03:24:34.896Z,0
2017-10-11T03:25:56.410Z,0
2017-10-11T03:27:18.306Z,0
2017-10-11T03:28:40.490Z,0
2017-10-11T03:30:02.937Z,0
2017-10-11T03:31:24.456Z,0
2017-10-11T03:32:46.652Z,0
2017-10-11T03:34:08.174Z,0
2017-10-11T03:35:30.012Z,0
2017-10-11T03:36:51.900Z,0
2017-10-11T03:38:14.081Z,0
2017-10-11T03:39:36.285Z,0
2017-10-11T03:40:58.182Z,0
2017-10-11T03:42:20.692Z,0
2017-10-11T03:43:42.255Z,0
2017-10-11T03:45:04.516Z,0
2017-10-11T03:46:26.676Z,0
2017-10-11T03:47:48.916Z,0
2017-10-11T03:49:11.436Z,0
2017-10-11T03:50:33.965Z,0
2017-10-11T03:51:56.485Z,0
2017-10-11T03:53:18.340Z,0
2017-10-11T03:54:40.193Z,0
2017-10-11T03:56:01.716Z,0
2017-10-11T03:57:23.831Z,0
2017-10-11T03:58:45.395Z,0
2017-10-11T04:00:06.556Z,0
2017-10-11T04:01:29.106Z,0
2017-10-11T04:02:51.261Z,0
2017-10-11T04:04:13.095Z,0
2017-10-11T04:05:34.940Z,0
2017-10-11T04:06:56.471Z,0
2017-10-11T04:08:19.444Z,0
2017-10-11T04:09:42.015Z,0
2017-10-11T04:11:04.615Z,0
2017-10-11T04:12:27.145Z,0
2017-10-11T04:13:49.078Z,0
2017-10-11T04:15:11.078Z,0
2017-10-11T04:16:33.275Z,0
2017-10-11T04:17:55.161Z,0
2017-10-11T04:19:17.008Z,0
2017-10-11T04:20:38.865Z,0
2017-10-11T04:22:00.726Z,0
2017-10-11T04:23:21.918Z,0
2017-10-11T04:24:44.533Z,0
2017-10-11T04:26:06.741Z,0
2017-10-11T04:27:28.281Z,0
2017-10-11T04:28:50.836Z,0
2017-10-11T04:30:13.015Z,0
2017-10-11T04:31:35.299Z,0
2017-10-11T04:32:57.914Z,0
2017-10-11T04:34:19.754Z,0
2017-10-11T04:35:41.365Z,0
2017-10-11T04:37:02.879Z,0
2017-10-11T04:38:24.715Z,0
2017-10-11T04:39:46.564Z,0
2017-10-11T04:41:08.434Z,0
2017-10-11T04:42:30.623Z,0
2017-10-11T04:43:52.158Z,0
2017-10-11T04:45:14.356Z,0
2017-10-11T04:46:36.829Z,0
2017-10-11T04:47:58.695Z,0
2017-10-11T04:49:20.539Z,0
2017-10-11T04:50:42.055Z,0
2017-10-11T04:52:04.544Z,0
2017-10-11T04:53:27.075Z,0
2017-10-11T04:54:48.942Z,0
2017-10-11T04:56:10.955Z,0
2017-10-11T04:57:33.461Z,0
2017-10-11T04:58:55.396Z,0
2017-10-11T05:00:17.251Z,0
2017-10-11T05:01:39.426Z,0
2017-10-11T05:03:02.381Z,0
2017-10-11T05:04:24.555Z,0
2017-10-11T05:05:47.071Z,0
2017-10-11T05:07:08.945Z,0
2017-10-11T05:08:31.802Z,0
2017-10-11T05:09:54.344Z,0
2017-10-11T05:11:15.905Z,0
2017-10-11T05:12:38.111Z,0
2017-10-11T05:13:59.311Z,0
2017-10-11T05:15:21.161Z,0
2017-10-11T05:16:43.353Z,0
2017-10-11T05:18:04.875Z,0
2017-10-11T05:19:27.494Z,0
2017-10-11T05:20:49.705Z,0
2017-10-11T05:22:10.560Z,0
2017-10-11T05:23:32.483Z,0
2017-10-11T05:24:54.647Z,4
2017-10-11T05:26:16.838Z,4
2017-10-11T05:27:39.079Z,4
2017-10-11T05:29:01.255Z,4
2017-10-11T05:30:23.714Z,8
2017-10-11T05:31:46.243Z,12
2017-10-11T05:33:08.105Z,24
2017-10-11T05:34:30.291Z,28
2017-10-11T05:35:52.498Z,40
2017-10-11T05:37:14.689Z,40
2017-10-11T05:38:37.255Z,40
2017-10-11T05:39:59.115Z,56
2017-10-11T05:41:21.222Z,52
2017-10-11T05:42:43.415Z,56
2017-10-11T05:44:06.060Z,92
2017-10-11T05:45:27.915Z,88
2017-10-11T05:46:50.375Z,88
2017-10-11T05:48:12.224Z,76
2017-10-11T05:49:34.085Z,84
2017-10-11T05:50:56.636Z,116
2017-10-11T05:52:18.492Z,112
2017-10-11T05:53:40.341Z,148
2017-10-11T05:55:03.069Z,124
2017-10-11T05:56:25.640Z,124
2017-10-11T05:57:48.464Z,120
2017-10-11T05:59:10.316Z,148
2017-10-11T06:00:31.502Z,160
2017-10-11T06:01:53.718Z,180
2017-10-11T06:03:16.220Z,200
2017-10-11T06:04:38.517Z,192
2017-10-11T06:06:00.706Z,168
2017-10-11T06:07:23.229Z,220
2017-10-11T06:08:45.403Z,204
2017-10-11T06:10:06.947Z,228
2017-10-11T06:11:29.167Z,280
2017-10-11T06:12:50.695Z,360
2017-10-11T06:14:12.878Z,508
2017-10-11T06:15:34.733Z,616
2017-10-11T06:16:56.584Z,588
2017-10-11T06:18:18.782Z,396
2017-10-11T06:19:41.083Z,372
2017-10-11T06:21:03.328Z,380
2017-10-11T06:22:25.506Z,480
2017-10-11T06:23:47.761Z,396
2017-10-11T06:25:10.384Z,428
2017-10-11T06:26:32.615Z,520
2017-10-11T06:27:55.136Z,668
2017-10-11T06:29:16.703Z,700
2017-10-11T06:30:39.254Z,664
2017-10-11T06:32:01.105Z,696
2017-10-11T06:33:22.642Z,572
2017-10-11T06:34:44.829Z,504
2017-10-11T06:36:06.918Z,556
2017-10-11T06:37:29.176Z,696
2017-10-11T06:38:51.914Z,960
2017-10-11T06:40:14.555Z,892
2017-10-11T06:41:36.488Z,616
2017-10-11T06:42:58.354Z,620
2017-10-11T06:44:20.603Z,532
2017-10-11T06:45:42.511Z,660
2017-10-11T06:47:04.678Z,788
2017-10-11T06:48:26.922Z,840
2017-10-11T06:49:48.786Z,1180
2017-10-11T06:51:10.652Z,1428
2017-10-11T06:52:33.234Z,1616
2017-10-11T06:53:55.090Z,1524
2017-10-11T06:55:17.291Z,1616
2017-10-11T06:56:39.485Z,1436
2017-10-11T06:58:01.865Z,1948
2017-10-11T06:59:24.095Z,2124
2017-10-11T07:00:46.638Z,1860
2017-10-11T07:02:09.187Z,1692
2017-10-11T07:03:31.365Z,1232
2017-10-11T07:04:53.665Z,704
2017-10-11T07:06:15.870Z,488
2017-10-11T07:07:38.049Z,436
2017-10-11T07:08:59.813Z,456
2017-10-11T07:10:22.021Z,460
2017-10-11T07:11:44.255Z,460
2017-10-11T07:13:06.455Z,576
2017-10-11T07:14:29.354Z,404
2017-10-11T07:15:51.216Z,496
2017-10-11T07:17:13.108Z,472
2017-10-11T07:18:35.640Z,596
2017-10-11T07:19:58.073Z,664
2017-10-11T07:21:19.996Z,844
2017-10-11T07:22:42.181Z,1180
2017-10-11T07:24:04.043Z,916
2017-10-11T07:25:25.913Z,956
2017-10-11T07:26:48.155Z,772
2017-10-11T07:28:09.714Z,604
2017-10-11T07:29:31.583Z,564
2017-10-11T07:30:54.115Z,752
2017-10-11T07:32:16.634Z,800
2017-10-11T07:33:38.584Z,1184
2017-10-11T07:35:00.767Z,1148
2017-10-11T07:36:22.952Z,980
2017-10-11T07:37:44.891Z,884
2017-10-11T07:39:06.748Z,928
2017-10-11T07:40:28.950Z,1216
2017-10-11T07:41:50.814Z,1492
2017-10-11T07:43:12.334Z,1536
2017-10-11T07:44:34.549Z,1564
2017-10-11T07:45:56.460Z,1632
2017-10-11T07:47:19.034Z,1496
2017-10-11T07:48:41.557Z,1312
2017-10-11T07:50:03.765Z,1104
2017-10-11T07:51:25.287Z,1376
2017-10-11T07:52:47.417Z,1808
2017-10-11T07:54:09.639Z,1640
2017-10-11T07:55:31.819Z,968
2017-10-11T07:56:53.679Z,1056
2017-10-11T07:58:16.722Z,1316
2017-10-11T07:59:39.305Z,1836
2017-10-11T08:01:01.172Z,1676
2017-10-11T08:02:23.696Z,1200
2017-10-11T08:03:45.554Z,904
2017-10-11T08:05:08.075Z,1088
2017-10-11T08:06:30.268Z,2004
2017-10-11T08:07:52.807Z,2392
2017-10-11T08:09:15.321Z,1824
2017-10-11T08:10:36.515Z,3400
2017-10-11T08:11:59.029Z,2860
2017-10-11T08:13:20.879Z,3288
2017-10-11T08:14:42.735Z,3884
2017-10-11T08:16:04.603Z,4392
2017-10-11T08:17:25.878Z,5672
2017-10-11T08:18:48.083Z,7068
2017-10-11T08:20:10.862Z,6752
2017-10-11T08:21:33.092Z,8404
2017-10-11T08:22:55.677Z,9536
2017-10-11T08:24:18.205Z,11208
2017-10-11T08:25:40.742Z,8984
2017-10-11T08:27:02.943Z,6044
2017-10-11T08:28:24.172Z,4124
2017-10-11T08:29:46.704Z,5032
2017-10-11T08:31:09.235Z,8572
2017-10-11T08:32:30.775Z,11648
2017-10-11T08:33:52.633Z,6636
2017-10-11T08:35:15.202Z,5892
2017-10-11T08:36:36.722Z,5620
2017-10-11T08:37:58.597Z,7160
2017-10-11T08:39:20.787Z,6864
2017-10-11T08:40:43.020Z,6280
2017-10-11T08:42:05.212Z,6580
2017-10-11T08:43:27.795Z,5976
2017-10-11T08:44:50.330Z,5564
2017-10-11T08:46:12.235Z,3516
2017-10-11T08:47:34.725Z,3260
2017-10-11T08:48:56.936Z,4040
2017-10-11T08:50:19.125Z,4200
2017-10-11T08:51:41.667Z,5792
2017-10-11T08:53:03.853Z,5332
2017-10-11T08:54:26.065Z,5436
2017-10-11T08:55:48.604Z,5832
2017-10-11T08:57:10.796Z,6176
2017-10-11T08:58:32.342Z,6748
2017-10-11T08:59:54.970Z,4700
2017-10-11T09:01:17.195Z,3752
2017-10-11T09:02:39.453Z,3056
2017-10-11T09:04:02.026Z,4068
2017-10-11T09:05:24.561Z,3940
2017-10-11T09:06:46.428Z,5916
2017-10-11T09:08:08.295Z,8732
2017-10-11T09:09:30.524Z,8376
2017-10-11T09:10:52.038Z,7952
2017-10-11T09:12:13.895Z,7256
2017-10-11T09:13:35.781Z,7336
2017-10-11T09:14:58.103Z,6428
2017-10-11T09:16:20.298Z,6068
2017-10-11T09:17:42.224Z,5396
2017-10-11T09:19:04.433Z,5148
2017-10-11T09:20:26.490Z,6888
2017-10-11T09:21:49.057Z,5780
2017-10-11T09:23:11.240Z,7892
2017-10-11T09:24:33.434Z,7620
2017-10-11T09:25:55.709Z,6060
2017-10-11T09:27:17.628Z,5496
2017-10-11T09:28:39.847Z,6436
2017-10-11T09:30:01.469Z,8364
2017-10-11T09:31:23.643Z,10120
2017-10-11T09:32:45.844Z,11572
2017-10-11T09:34:08.065Z,9892
2017-10-11T09:35:29.941Z,6784
2017-10-11T09:36:52.122Z,6400
2017-10-11T09:38:13.314Z,6320
2017-10-11T09:39:35.165Z,7160
2017-10-11T09:40:57.034Z,7668
2017-10-11T09:42:19.532Z,8932
2017-10-11T09:43:41.723Z,7296
2017-10-11T09:45:03.601Z,10632
2017-10-11T09:46:26.174Z,6968
2017-10-11T09:47:48.675Z,6752
2017-10-11T09:49:11.216Z,5808
2017-10-11T09:50:33.070Z,6060
2017-10-11T09:51:55.733Z,6716
2017-10-11T09:53:17.930Z,6836
2017-10-11T09:54:40.162Z,5944
2017-10-11T09:56:02.362Z,6048
2017-10-11T09:57:24.553Z,8140
2017-10-11T09:58:46.751Z,9112
2017-10-11T10:00:08.938Z,8840
2017-10-11T10:01:31.202Z,8200
2017-10-11T10:02:53.077Z,8464
2017-10-11T10:04:14.933Z,8072
2017-10-11T10:05:37.184Z,7288
2017-10-11T10:06:59.879Z,5328
2017-10-11T10:08:22.083Z,4752
2017-10-11T10:09:44.644Z,4384
2017-10-11T10:11:06.532Z,4504
2017-10-11T10:12:28.399Z,4840
2017-10-11T10:13:50.353Z,4756
2017-10-11T10:15:12.553Z,5060
2017-10-11T10:16:34.745Z,5256
2017-10-11T10:17:57.264Z,6568
2017-10-11T10:19:19.489Z,6232
2017-10-11T10:20:41.712Z,6116
2017-10-11T10:22:03.911Z,6088
2017-10-11T10:23:26.452Z,6864
2017-10-11T10:24:49.000Z,5716
2017-10-11T10:26:11.653Z,4996
2017-10-11T10:27:33.550Z,6040
2017-10-11T10:28:55.390Z,7016
2017-10-11T10:30:17.604Z,6676
2017-10-11T10:31:39.494Z,8272
2017-10-11T10:33:01.709Z,7820
2017-10-11T10:34:23.561Z,8516
2017-10-11T10:35:45.760Z,9928
2017-10-11T10:37:08.596Z,11548
2017-10-11T10:38:30.824Z,9472
2017-10-11T10:39:53.377Z,8984
2017-10-11T10:41:15.903Z,8204
2017-10-11T10:42:37.161Z,8908
2017-10-11T10:43:59.704Z,6764
2017-10-11T10:45:22.229Z,5884
2017-10-11T10:46:44.598Z,4992
2017-10-11T10:48:07.131Z,4876
2017-10-11T10:49:29.034Z,5844
2017-10-11T10:50:51.224Z,7412
2017-10-11T10:52:13.104Z,6288
2017-10-11T10:53:35.010Z,5656
2017-10-11T10:54:57.570Z,4808
2017-10-11T10:56:19.844Z,4828
2017-10-11T10:57:42.421Z,4244
2017-10-11T10:59:05.025Z,3808
2017-10-11T11:00:27.235Z,4564
2017-10-11T11:01:49.775Z,5536
2017-10-11T11:03:12.000Z,5732
2017-10-11T11:04:34.538Z,6528
2017-10-11T11:05:56.748Z,9376
2017-10-11T11:07:18.951Z,9668
2017-10-11T11:08:40.897Z,6396
2017-10-11T11:10:03.166Z,4980
2017-10-11T11:11:25.811Z,5300
2017-10-11T11:12:47.695Z,5304
2017-10-11T11:14:10.229Z,5760
2017-10-11T11:15:32.509Z,8200
2017-10-11T11:16:55.045Z,8008
2017-10-11T11:18:16.568Z,8844
2017-10-11T11:19:39.158Z,6924
2017-10-11T11:21:00.745Z,4952
2017-10-11T11:22:22.750Z,7604
2017-10-11T11:23:44.975Z,8376
2017-10-11T11:25:07.182Z,8044
2017-10-11T11:26:29.418Z,7196
2017-10-11T11:27:51.632Z,5812
2017-10-11T11:29:13.186Z,3800
2017-10-11T11:30:35.393Z,5072
2017-10-11T11:31:56.948Z,5756
2017-10-11T11:33:19.547Z,5264
2017-10-11T11:34:41.845Z,4364
2017-10-11T11:36:04.172Z,4948
2017-10-11T11:37:26.049Z,4424
2017-10-11T11:38:48.282Z,6748
2017-10-11T11:40:10.494Z,8728
2017-10-11T11:41:33.022Z,9172
2017-10-11T11:42:55.060Z,9312
2017-10-11T11:44:16.915Z,9456
2017-10-11T11:45:38.555Z,9520
2017-10-11T11:47:00.447Z,13064
2017-10-11T11:48:22.887Z,13632
2017-10-11T11:49:45.426Z,10388
2017-10-11T11:51:07.635Z,11776
2017-10-11T11:52:30.178Z,13664
2017-10-11T11:53:52.519Z,11156
2017-10-11T11:55:14.844Z,8284
2017-10-11T11:56:37.373Z,10936
2017-10-11T11:57:59.254Z,9140
2017-10-11T11:59:21.475Z,8608
2017-10-11T12:00:43.741Z,7912
2017-10-11T12:02:05.976Z,9440
2017-10-11T12:03:28.197Z,10732
2017-10-11T12:04:50.408Z,12312
2017-10-11T12:06:12.645Z,12172
2017-10-11T12:07:34.562Z,11800
2017-10-11T12:08:56.774Z,11412
2017-10-11T12:10:19.564Z,10064
2017-10-11T12:11:41.198Z,10468
2017-10-11T12:13:03.887Z,11980
2017-10-11T12:14:26.447Z,11116
2017-10-11T12:15:49.514Z,11216
2017-10-11T12:17:12.164Z,10828
2017-10-11T12:18:34.038Z,10944
2017-10-11T12:19:56.285Z,10424
2017-10-11T12:21:18.619Z,10988
2017-10-11T12:22:41.187Z,12228
2017-10-11T12:24:03.099Z,11144
2017-10-11T12:25:25.661Z,9624
2017-10-11T12:26:47.878Z,8456
2017-10-11T12:28:10.175Z,10120
2017-10-11T12:29:32.059Z,10768
2017-10-11T12:30:54.277Z,11840
2017-10-11T12:32:17.159Z,11980
2017-10-11T12:33:39.700Z,10724
2017-10-11T12:35:01.951Z,8496
2017-10-11T12:36:24.266Z,7804
2017-10-11T12:37:46.476Z,6840
2017-10-11T12:39:08.744Z,7820
2017-10-11T12:40:31.098Z,7256
2017-10-11T12:41:52.997Z,7428
2017-10-11T12:43:15.463Z,6652
2017-10-11T12:44:38.086Z,8844
2017-10-11T12:46:00.011Z,7444
2017-10-11T12:47:22.558Z,7072
2017-10-11T12:48:44.424Z,8004
2017-10-11T12:50:06.983Z,6208
2017-10-11T12:51:29.334Z,5508
2017-10-11T12:52:51.206Z,5128
2017-10-11T12:54:13.419Z,4044
2017-10-11T12:55:35.287Z,2956
2017-10-11T12:56:56.837Z,3316
2017-10-11T12:58:19.523Z,2872
2017-10-11T12:59:42.099Z,2928
2017-10-11T13:01:04.400Z,2440
2017-10-11T13:02:26.616Z,2216
2017-10-11T13:03:48.828Z,2712
2017-10-11T13:05:11.035Z,3308
2017-10-11T13:06:33.234Z,3780
2017-10-11T13:07:55.510Z,3036
2017-10-11T13:09:17.705Z,2776
2017-10-11T13:10:39.922Z,2476
2017-10-11T13:12:01.784Z,3152
2017-10-11T13:13:24.322Z,3268
2017-10-11T13:14:46.534Z,2864
2017-10-11T13:16:09.086Z,2704
2017-10-11T13:17:30.944Z,3432
2017-10-11T13:18:53.154Z,3508
2017-10-11T13:20:15.422Z,4168
2017-10-11T13:21:37.643Z,6188
2017-10-11T13:23:00.182Z,6600
2017-10-11T13:24:22.047Z,4088
2017-10-11T13:25:44.625Z,4028
2017-10-11T13:27:06.813Z,4624
2017-10-11T13:28:29.034Z,5740
2017-10-11T13:29:51.574Z,5532
2017-10-11T13:31:14.113Z,7124
2017-10-11T13:32:36.445Z,8944
2017-10-11T13:33:59.004Z,9612
2017-10-11T13:35:21.262Z,10416
2017-10-11T13:36:43.136Z,9808
2017-10-11T13:38:05.001Z,8844
2017-10-11T13:39:27.526Z,7936
2017-10-11T13:40:50.075Z,6712
2017-10-11T13:42:11.939Z,5668
2017-10-11T13:43:34.135Z,5812
2017-10-11T13:44:56.346Z,5160
2017-10-11T13:46:18.932Z,4800
2017-10-11T13:47:41.495Z,4568
2017-10-11T13:49:03.739Z,5136
2017-10-11T13:50:25.615Z,5160
2017-10-11T13:51:47.874Z,5960
2017-10-11T13:53:10.442Z,6828
2017-10-11T13:54:32.987Z,6832
2017-10-11T13:55:55.510Z,7508
2017-10-11T13:57:18.091Z,7296
2017-10-11T13:58:39.954Z,6800
2017-10-11T14:00:01.833Z,7184
2017-10-11T14:01:24.374Z,5800
2017-10-11T14:02:46.236Z,4244
2017-10-11T14:04:08.128Z,3744
2017-10-11T14:05:29.994Z,3276
2017-10-11T14:06:51.525Z,2512
2017-10-11T14:08:13.375Z,2304
2017-10-11T14:09:35.236Z,2180
2017-10-11T14:10:57.796Z,1932
2017-10-11T14:12:20.017Z,1664
2017-10-11T14:13:41.901Z,1528
2017-10-11T14:15:03.785Z,1692
2017-10-11T14:16:25.985Z,2148
2017-10-11T14:17:48.159Z,2112
2017-10-11T14:19:10.686Z,2336
2017-10-11T14:20:32.900Z,2756
2017-10-11T14:21:55.365Z,3452
2017-10-11T14:23:17.565Z,4160
2017-10-11T14:24:40.114Z,4456
2017-10-11T14:26:01.029Z,4440
2017-10-11T14:27:23.720Z,4348
2017-10-11T14:28:46.245Z,3804
2017-10-11T14:30:08.991Z,3212
2017-10-11T14:31:31.564Z,2532
2017-10-11T14:32:54.420Z,2156
2017-10-11T14:34:16.661Z,1900
2017-10-11T14:35:38.888Z,1944
2017-10-11T14:37:00.421Z,1916
2017-10-11T14:38:22.678Z,1948
2017-10-11T14:39:44.936Z,1864
2017-10-11T14:41:07.137Z,1892
2017-10-11T14:42:29.343Z,1948
2017-10-11T14:43:50.866Z,2124
2017-10-11T14:45:13.139Z,2460
2017-10-11T14:46:35.514Z,2476
2017-10-11T14:47:57.685Z,2368
2017-10-11T14:49:19.225Z,2224
2017-10-11T14:50:41.071Z,2200
2017-10-11T14:52:03.256Z,2232
2017-10-11T14:53:25.466Z,2200
2017-10-11T14:54:47.788Z,2040
2017-10-11T14:56:09.719Z,1968
2017-10-11T14:57:31.940Z,1860
2017-10-11T14:58:53.460Z,1792
2017-10-11T15:00:14.988Z,1828
2017-10-11T15:01:36.284Z,1656
2017-10-11T15:02:58.563Z,1368
2017-10-11T15:04:20.437Z,1176
2017-10-11T15:05:42.752Z,984
2017-10-11T15:07:04.609Z,964
2017-10-11T15:08:26.541Z,1160
2017-10-11T15:09:48.788Z,988
2017-10-11T15:11:11.317Z,1024
2017-10-11T15:12:33.877Z,852
2017-10-11T15:13:55.737Z,956
2017-10-11T15:15:17.949Z,1132
2017-10-11T15:16:40.130Z,1252
2017-10-11T15:18:01.976Z,1352
2017-10-11T15:19:24.570Z,1324
2017-10-11T15:20:46.770Z,1456
2017-10-11T15:22:08.938Z,1824
2017-10-11T15:23:30.461Z,1860
2017-10-11T15:24:53.002Z,1688
2017-10-11T15:26:14.878Z,1604
2017-10-11T15:27:37.403Z,1492
2017-10-11T15:28:59.606Z,1512
2017-10-11T15:30:22.157Z,1664
2017-10-11T15:31:44.692Z,1696
2017-10-11T15:33:06.226Z,1768
2017-10-11T15:34:28.097Z,1724
2017-10-11T15:35:50.273Z,1636
2017-10-11T15:37:11.808Z,1484
2017-10-11T15:38:34.128Z,1340
2017-10-11T15:39:56.339Z,1172
2017-10-11T15:41:18.860Z,912
2017-10-11T15:42:41.164Z,804
2017-10-11T15:44:03.627Z,632
2017-10-11T15:45:25.523Z,584
2017-10-11T15:46:47.927Z,664
2017-10-11T15:48:10.172Z,640
2017-10-11T15:49:32.710Z,544
2017-10-11T15:50:54.917Z,580
2017-10-11T15:52:17.236Z,592
2017-10-11T15:53:39.106Z,472
2017-10-11T15:55:01.317Z,408
2017-10-11T15:56:23.993Z,364
2017-10-11T15:57:46.609Z,404
2017-10-11T15:59:08.476Z,336
2017-10-11T16:00:30.656Z,332
2017-10-11T16:01:53.288Z,360
2017-10-11T16:03:15.481Z,312
2017-10-11T16:04:37.718Z,288
2017-10-11T16:06:00.241Z,316
2017-10-11T16:07:22.105Z,336
2017-10-11T16:08:43.739Z,368
2017-10-11T16:10:05.939Z,420
2017-10-11T16:11:28.468Z,468
2017-10-11T16:12:50.755Z,524
2017-10-11T16:14:13.285Z,552
2017-10-11T16:15:35.165Z,572
2017-10-11T16:16:57.717Z,544
2017-10-11T16:18:20.248Z,468
2017-10-11T16:19:42.792Z,412
2017-10-11T16:21:05.467Z,364
2017-10-11T16:22:28.342Z,308
2017-10-11T16:23:50.897Z,272
2017-10-11T16:25:13.449Z,248
2017-10-11T16:26:35.657Z,212
2017-10-11T16:27:58.558Z,188
2017-10-11T16:29:20.886Z,172
2017-10-11T16:30:43.106Z,152
2017-10-11T16:32:05.292Z,144
2017-10-11T16:33:27.913Z,124
2017-10-11T16:34:49.769Z,108
2017-10-11T16:36:12.316Z,96
2017-10-11T16:37:34.866Z,80
2017-10-11T16:38:57.427Z,76
2017-10-11T16:40:19.674Z,56
2017-10-11T16:41:41.903Z,52
2017-10-11T16:43:04.125Z,52
2017-10-11T16:44:26.385Z,52
2017-10-11T16:45:48.637Z,40
2017-10-11T16:47:11.192Z,32
2017-10-11T16:48:33.381Z,24
2017-10-11T16:49:56.262Z,16
2017-10-11T16:51:18.464Z,12
2017-10-11T16:52:40.329Z,8
2017-10-11T16:54:02.546Z,12
2017-10-11T16:55:24.860Z,4
2017-10-11T16:56:47.420Z,4
2017-10-11T16:58:09.636Z,4
2017-10-11T16:59:31.552Z,0
2017-10-11T17:00:54.086Z,4
2017-10-11T17:02:15.937Z,4
2017-10-11T17:03:38.155Z,0
2017-10-11T17:05:00.733Z,0
2017-10-11T17:06:23.637Z,0
2017-10-11T17:07:45.951Z,32
2017-10-11T17:09:08.140Z,28
2017-10-11T17:10:30.700Z,32
2017-10-11T17:11:53.268Z,32
2017-10-11T17:13:15.462Z,32
2017-10-11T17:14:37.513Z,32
2017-10-11T17:15:59.718Z,32
2017-10-11T17:17:22.275Z,28
2017-10-11T17:18:44.160Z,32
2017-10-11T17:20:06.390Z,32
2017-10-11T17:21:29.023Z,32
2017-10-11T17:22:51.247Z,32
2017-10-11T17:24:13.473Z,32
2017-10-11T17:25:36.070Z,32
2017-10-11T17:26:58.278Z,32
2017-10-11T17:28:20.905Z,0
2017-10-11T17:29:43.127Z,0
2017-10-11T17:31:05.337Z,0
2017-10-11T17:32:27.563Z,0
2017-10-11T17:33:50.148Z,0
2017-10-11T17:35:12.704Z,32
2017-10-11T17:36:34.255Z,32
2017-10-11T17:37:56.519Z,32
2017-10-11T17:39:19.067Z,32
2017-10-11T17:40:41.064Z,32
2017-10-11T17:42:03.345Z,32
2017-10-11T17:43:25.586Z,32
2017-10-11T17:44:47.874Z,32
2017-10-11T17:46:10.560Z,32
2017-10-11T17:47:32.908Z,32
2017-10-11T17:48:55.460Z,32
2017-10-11T17:50:18.009Z,32
2017-10-11T17:51:40.231Z,32
2017-10-11T17:53:02.868Z,32
2017-10-11T17:54:25.492Z,32
2017-10-11T17:55:47.749Z,32
2017-10-11T17:57:10.038Z,28
2017-10-11T17:58:32.669Z,32
2017-10-11T17:59:55.345Z,32
2017-10-11T18:01:32.116Z,32
2017-10-11T18:02:54.770Z,32
2017-10-11T18:04:16.995Z,28
2017-10-11T18:05:39.222Z,0
2017-10-11T18:07:01.884Z,0
2017-10-11T18:08:24.456Z,0
2017-10-11T18:09:46.349Z,0
2017-10-11T18:11:08.916Z,0
2017-10-11T18:12:31.142Z,0
2017-10-11T18:13:53.343Z,0
2017-10-11T18:15:15.578Z,0
2017-10-11T18:16:38.139Z,0
2017-10-11T18:18:00.334Z,0
2017-10-11T18:19:22.917Z,0
2017-10-11T18:20:45.466Z,0
2017-10-11T18:22:08.100Z,0
2017-10-11T18:23:30.282Z,0
2017-10-11T18:24:52.873Z,0
2017-10-11T18:26:15.438Z,0
2017-10-11T18:27:37.970Z,0
2017-10-11T18:29:00.174Z,0
2017-10-11T18:30:22.045Z,0
2017-10-11T18:31:44.568Z,0
2017-10-11T18:33:07.185Z,0
2017-10-11T18:34:29.835Z,0
2017-10-11T18:35:52.060Z,0
2017-10-11T18:37:14.596Z,0
2017-10-11T18:38:36.849Z,0
2017-10-11T18:39:59.538Z,0
2017-10-11T18:41:22.098Z,0
2017-10-11T18:42:44.675Z,0
2017-10-11T18:44:06.569Z,0
2017-10-11T18:45:29.160Z,0
2017-10-11T18:46:51.694Z,0
2017-10-11T18:48:14.315Z,0
2017-10-11T18:49:36.887Z,0
2017-10-11T18:50:59.957Z,0
2017-10-11T18:52:22.579Z,0
2017-10-11T18:53:44.456Z,0
2017-10-11T18:55:07.014Z,0
2017-10-11T18:56:29.596Z,0
2017-10-11T18:57:51.818Z,0
2017-10-11T18:59:14.095Z,0
2017-10-11T19:00:36.427Z,0
2017-10-11T19:01:58.688Z,0
2017-10-11T19:03:21.219Z,0
2017-10-11T19:04:43.825Z,0